createdAt,value
2019-02-21T00:00:38.058Z,0.00
2019-02-21T00:01:37.786Z,0.02
2019-02-21T00:02:37.768Z,-0.05
2019-02-21T00:03:37.803Z,-0.11
2019-02-21T00:04:37.760Z,-0.11
2019-02-21T00:05:37.738Z,-0.09
2019-02-21T00:06:37.724Z,-0.13
2019-02-21T00:07:37.729Z,-0.12
2019-02-21T00:08:37.738Z,-0.15
2019-02-21T00:09:37.706Z,-0.16
2019-02-21T00:10:37.686Z,-0.13
2019-02-21T00:11:38.317Z,-0.23
2019-02-21T00:12:37.685Z,-0.19
2019-02-21T00:13:37.686Z,-0.13
2019-02-21T00:14:37.645Z,-0.22
2019-02-21T00:15:37.636Z,-0.13
2019-02-21T00:16:37.628Z,-0.18
2019-02-21T00:17:37.625Z,-0.09
2019-02-21T00:18:37.642Z,-0.06
2019-02-21T00:19:37.594Z,-0.09
2019-02-21T00:20:37.588Z,-0.06
2019-02-21T00:21:37.589Z,-0.11
2019-02-21T00:22:37.569Z,-0.08
2019-02-21T00:23:37.584Z,-0.12
2019-02-21T00:24:39.952Z,-0.05
2019-02-21T00:25:37.536Z,-0.06
2019-02-21T00:26:37.528Z,-0.09
2019-02-21T00:27:37.522Z,-0.15
2019-02-21T00:28:37.532Z,-0.16
2019-02-21T00:29:37.507Z,-0.13
2019-02-21T00:30:37.489Z,-0.15
2019-02-21T00:31:39.902Z,-0.08
2019-02-21T00:32:37.469Z,-0.19
2019-02-21T00:33:37.482Z,-0.27
2019-02-21T00:34:37.556Z,-0.30
2019-02-21T00:35:37.432Z,-0.34
2019-02-21T00:36:37.433Z,-0.19
2019-02-21T00:37:37.414Z,-0.39
2019-02-21T00:38:37.471Z,-0.29
2019-02-21T00:39:37.394Z,-0.41
2019-02-21T00:40:37.384Z,-0.47
2019-02-21T00:41:37.372Z,-0.51
2019-02-21T00:42:37.375Z,-0.54
2019-02-21T00:43:37.386Z,-0.54
2019-02-21T00:44:37.348Z,-0.47
2019-02-21T00:45:37.343Z,-0.48
2019-02-21T00:46:37.324Z,-0.42
2019-02-21T00:47:37.311Z,-0.37
2019-02-21T00:48:37.332Z,-0.50
2019-02-21T00:49:37.292Z,-0.48
2019-02-21T00:50:37.283Z,-0.57
2019-02-21T00:51:37.276Z,-0.72
2019-02-21T00:52:37.262Z,-0.77
2019-02-21T00:53:37.278Z,-0.87
2019-02-21T00:54:37.244Z,-0.95
2019-02-21T00:55:37.317Z,-1.02
2019-02-21T00:56:37.221Z,-0.92
2019-02-21T00:57:37.208Z,-0.86
2019-02-21T00:58:37.225Z,-0.81
2019-02-21T00:59:37.201Z,-0.81
2019-02-21T01:00:45.982Z,-0.70
2019-02-21T01:01:38.163Z,-0.81
2019-02-21T01:02:37.160Z,-0.68
2019-02-21T01:03:37.185Z,-0.62
2019-02-21T01:04:37.136Z,-0.66
2019-02-21T01:05:37.134Z,-0.60
2019-02-21T01:06:37.118Z,-0.59
2019-02-21T01:07:37.106Z,-0.54
2019-02-21T01:08:37.098Z,-0.66
2019-02-21T01:09:37.117Z,-0.73
2019-02-21T01:10:37.083Z,-0.72
2019-02-21T01:11:37.068Z,-0.86
2019-02-21T01:12:37.060Z,-0.92
2019-02-21T01:13:37.053Z,-1.05
2019-02-21T01:14:37.066Z,-1.02
2019-02-21T01:15:37.027Z,-1.06
2019-02-21T01:16:37.303Z,-1.10
2019-02-21T01:17:37.010Z,-1.07
2019-02-21T01:18:36.997Z,-1.06
2019-02-21T01:19:37.028Z,-1.09
2019-02-21T01:20:36.976Z,-1.07
2019-02-21T01:21:36.966Z,-1.03
2019-02-21T01:22:36.959Z,-1.13
2019-02-21T01:23:36.949Z,-1.20
2019-02-21T01:24:36.965Z,-1.30
2019-02-21T01:25:36.926Z,-1.39
2019-02-21T01:26:36.922Z,-1.42
2019-02-21T01:27:36.908Z,-1.42
2019-02-21T01:28:36.894Z,-1.45
2019-02-21T01:29:36.915Z,-1.54
2019-02-21T01:30:36.873Z,-1.56
2019-02-21T01:31:37.054Z,-1.63
2019-02-21T01:32:36.855Z,-1.59
2019-02-21T01:33:37.000Z,-1.69
2019-02-21T01:34:36.871Z,-1.75
2019-02-21T01:35:36.823Z,-1.84
2019-02-21T01:36:36.819Z,-1.75
2019-02-21T01:37:36.807Z,-1.84
2019-02-21T01:38:36.800Z,-1.98
2019-02-21T01:39:36.808Z,-1.99
2019-02-21T01:40:36.776Z,-2.03
2019-02-21T01:41:36.758Z,-2.00
2019-02-21T01:42:37.477Z,-1.95
2019-02-21T01:43:37.447Z,-1.99
2019-02-21T01:44:36.774Z,-1.90
2019-02-21T01:45:36.753Z,-1.92
2019-02-21T01:46:36.713Z,-1.90
2019-02-21T01:47:36.703Z,-1.85
2019-02-21T01:48:36.692Z,-1.93
2019-02-21T01:49:36.726Z,-1.93
2019-02-21T01:50:36.671Z,-1.99
2019-02-21T01:51:36.656Z,-2.10
2019-02-21T01:52:36.653Z,-2.08
2019-02-21T01:53:36.642Z,-1.88
2019-02-21T01:54:36.636Z,-1.88
2019-02-21T01:55:36.653Z,-1.84
2019-02-21T01:56:36.606Z,-1.85
2019-02-21T01:57:36.594Z,-1.93
2019-02-21T01:58:36.592Z,-1.80
2019-02-21T01:59:36.607Z,-1.85
2019-02-21T02:00:36.569Z,-1.96
2019-02-21T02:01:36.557Z,-1.98
2019-02-21T02:02:36.550Z,-2.11
2019-02-21T02:03:36.564Z,-2.05
2019-02-21T02:04:36.576Z,-2.13
2019-02-21T02:05:36.531Z,-2.08
2019-02-21T02:06:36.519Z,-2.00
2019-02-21T02:07:36.498Z,-1.82
2019-02-21T02:08:36.483Z,-2.05
2019-02-21T02:09:36.520Z,-1.93
2019-02-21T02:10:36.472Z,-1.85
2019-02-21T02:11:36.463Z,-1.87
2019-02-21T02:12:36.472Z,-1.77
2019-02-21T02:13:36.444Z,-2.05
2019-02-21T02:14:36.425Z,-2.06
2019-02-21T02:15:36.459Z,-2.13
2019-02-21T02:16:36.408Z,-2.13
2019-02-21T02:17:36.442Z,-2.13
2019-02-21T02:18:36.387Z,-2.20
2019-02-21T02:19:36.383Z,-2.38
2019-02-21T02:20:36.373Z,-2.38
2019-02-21T02:21:36.361Z,-2.51
2019-02-21T02:22:36.357Z,-2.56
2019-02-21T02:23:36.736Z,-2.61
2019-02-21T02:24:36.350Z,-2.68
2019-02-21T02:25:36.334Z,-2.63
2019-02-21T02:26:36.312Z,-2.74
2019-02-21T02:27:36.301Z,-2.74
2019-02-21T02:28:36.317Z,-2.64
2019-02-21T02:29:36.311Z,-2.64
2019-02-21T02:30:36.276Z,-2.78
2019-02-21T02:31:36.273Z,-2.64
2019-02-21T02:32:36.250Z,-2.57
2019-02-21T02:33:36.243Z,-2.47
2019-02-21T02:34:36.295Z,-2.48
2019-02-21T02:35:36.225Z,-2.39
2019-02-21T02:36:36.210Z,-2.42
2019-02-21T02:37:36.211Z,-2.56
2019-02-21T02:38:36.185Z,-2.47
2019-02-21T02:39:36.212Z,-2.45
2019-02-21T02:40:36.168Z,-2.51
2019-02-21T02:41:36.159Z,-2.45
2019-02-21T02:42:36.148Z,-2.56
2019-02-21T02:43:36.133Z,-2.51
2019-02-21T02:44:38.427Z,-2.54
2019-02-21T02:45:36.129Z,-2.43
2019-02-21T02:46:36.132Z,-2.42
2019-02-21T02:47:36.097Z,-2.32
2019-02-21T02:48:36.098Z,-2.35
2019-02-21T02:49:36.125Z,-2.40
2019-02-21T02:50:36.068Z,-2.32
2019-02-21T02:51:36.060Z,-2.38
2019-02-21T02:52:36.049Z,-2.33
2019-02-21T02:53:36.039Z,-2.32
2019-02-21T02:54:36.059Z,-2.40
2019-02-21T02:55:36.018Z,-2.33
2019-02-21T02:56:36.013Z,-2.32
2019-02-21T02:57:36.010Z,-2.45
2019-02-21T02:58:35.984Z,-2.54
2019-02-21T02:59:40.678Z,-2.56
2019-02-21T03:00:37.005Z,-2.57
2019-02-21T03:01:35.960Z,-2.50
2019-02-21T03:02:35.948Z,-2.56
2019-02-21T03:03:36.324Z,-2.57
2019-02-21T03:04:35.952Z,-2.58
2019-02-21T03:05:35.951Z,-2.66
2019-02-21T03:06:35.946Z,-2.64
2019-02-21T03:07:35.898Z,-2.79
2019-02-21T03:08:35.886Z,-2.92
2019-02-21T03:09:35.878Z,-2.93
2019-02-21T03:10:36.270Z,-2.94
2019-02-21T03:11:36.046Z,-2.86
2019-02-21T03:12:36.091Z,-2.89
2019-02-21T03:13:36.060Z,-2.96
2019-02-21T03:14:36.038Z,-2.93
2019-02-21T03:15:36.234Z,-3.05
2019-02-21T03:16:36.473Z,-3.07
2019-02-21T03:17:36.045Z,-2.90
2019-02-21T03:18:36.010Z,-2.93
2019-02-21T03:19:36.032Z,-2.89
2019-02-21T03:20:35.895Z,-2.94
2019-02-21T03:21:35.810Z,-2.96
2019-02-21T03:22:35.919Z,-2.94
2019-02-21T03:23:35.791Z,-2.94
2019-02-21T03:24:35.787Z,-3.08
2019-02-21T03:25:35.828Z,-3.07
2019-02-21T03:26:35.763Z,-3.17
2019-02-21T03:27:35.757Z,-3.28
2019-02-21T03:28:36.481Z,-3.26
2019-02-21T03:29:35.734Z,-3.17
2019-02-21T03:30:35.805Z,-3.00
2019-02-21T03:31:52.650Z,-3.04
2019-02-21T03:32:36.700Z,-2.96
2019-02-21T03:33:35.695Z,-2.92
2019-02-21T03:34:35.684Z,-2.86
2019-02-21T03:35:35.753Z,-2.89
2019-02-21T03:36:35.668Z,-2.79
2019-02-21T03:37:35.658Z,-2.72
2019-02-21T03:38:35.907Z,-2.92
2019-02-21T03:39:35.634Z,-3.05
2019-02-21T03:40:35.708Z,-2.99
2019-02-21T03:41:35.617Z,-3.11
2019-02-21T03:42:35.591Z,-3.18
2019-02-21T03:43:35.572Z,-3.22
2019-02-21T03:44:35.579Z,-3.26
2019-02-21T03:45:35.663Z,-3.18
2019-02-21T03:46:35.569Z,-3.10
2019-02-21T03:47:35.541Z,-3.13
2019-02-21T03:48:35.552Z,-3.10
2019-02-21T03:49:35.519Z,-3.02
2019-02-21T03:50:35.592Z,-3.02
2019-02-21T03:51:35.511Z,-2.93
2019-02-21T03:52:35.497Z,-2.78
2019-02-21T03:53:35.493Z,-2.82
2019-02-21T03:54:35.479Z,-2.79
2019-02-21T03:55:38.640Z,-2.79
2019-02-21T03:56:35.466Z,-2.75
2019-02-21T03:57:35.450Z,-2.90
2019-02-21T03:58:35.439Z,-2.96
2019-02-21T03:59:35.440Z,-3.05
2019-02-21T04:00:35.507Z,-3.05
2019-02-21T04:01:35.403Z,-3.23
2019-02-21T04:02:35.398Z,-3.15
2019-02-21T04:03:35.426Z,-3.15
2019-02-21T04:04:35.378Z,-3.31
2019-02-21T04:05:35.448Z,-3.25
2019-02-21T04:06:35.345Z,-3.26
2019-02-21T04:07:35.412Z,-3.38
2019-02-21T04:08:35.332Z,-3.44
2019-02-21T04:09:35.330Z,-3.53
2019-02-21T04:10:35.387Z,-3.49
2019-02-21T04:11:35.378Z,-3.51
2019-02-21T04:12:35.292Z,-3.71
2019-02-21T04:13:35.280Z,-3.68
2019-02-21T04:14:35.318Z,-3.65
2019-02-21T04:15:35.265Z,-3.70
2019-02-21T04:16:37.970Z,-3.62
2019-02-21T04:17:35.227Z,-3.62
2019-02-21T04:18:35.229Z,-3.72
2019-02-21T04:19:35.227Z,-3.68
2019-02-21T04:20:35.202Z,-3.68
2019-02-21T04:21:35.250Z,-3.70
2019-02-21T04:22:35.208Z,-3.54
2019-02-21T04:23:35.163Z,-3.57
2019-02-21T04:24:35.136Z,-3.49
2019-02-21T04:25:35.130Z,-3.46
2019-02-21T04:26:35.174Z,-3.43
2019-02-21T04:27:35.120Z,-3.33
2019-02-21T04:28:35.094Z,-3.36
2019-02-21T04:29:35.097Z,-3.32
2019-02-21T04:30:35.080Z,-3.35
2019-02-21T04:31:35.097Z,-3.25
2019-02-21T04:32:35.061Z,-3.28
2019-02-21T04:33:35.061Z,-3.14
2019-02-21T04:34:35.062Z,-3.17
2019-02-21T04:35:35.984Z,-3.08
2019-02-21T04:36:35.077Z,-3.00
2019-02-21T04:37:35.037Z,-3.13
2019-02-21T04:38:35.297Z,-3.26
2019-02-21T04:39:34.992Z,-3.26
2019-02-21T04:40:34.984Z,-3.46
2019-02-21T04:41:34.965Z,-3.46
2019-02-21T04:42:34.960Z,-3.64
2019-02-21T04:43:34.981Z,-3.61
2019-02-21T04:44:34.944Z,-3.68
2019-02-21T04:45:34.932Z,-3.68
2019-02-21T04:46:34.931Z,-3.62
2019-02-21T04:47:34.943Z,-3.61
2019-02-21T04:48:34.901Z,-3.51
2019-02-21T04:49:34.925Z,-3.44
2019-02-21T04:50:34.910Z,-3.51
2019-02-21T04:51:34.881Z,-3.49
2019-02-21T04:52:34.867Z,-3.53
2019-02-21T04:53:34.858Z,-3.56
2019-02-21T04:54:34.874Z,-3.51
2019-02-21T04:55:34.836Z,-3.54
2019-02-21T04:56:36.027Z,-3.51
2019-02-21T04:57:34.818Z,-3.51
2019-02-21T04:58:34.804Z,-3.57
2019-02-21T04:59:34.787Z,-3.61
2019-02-21T05:00:34.774Z,-3.64
2019-02-21T05:01:34.788Z,-3.61
2019-02-21T05:02:34.748Z,-3.43
2019-02-21T05:03:34.764Z,-3.56
2019-02-21T05:04:34.727Z,-3.47
2019-02-21T05:05:34.795Z,-3.35
2019-02-21T05:06:34.707Z,-3.35
2019-02-21T05:07:35.970Z,-3.32
2019-02-21T05:08:34.710Z,-3.23
2019-02-21T05:09:34.685Z,-3.29
2019-02-21T05:10:34.663Z,-3.25
2019-02-21T05:11:34.687Z,-3.18
2019-02-21T05:12:34.659Z,-3.13
2019-02-21T05:13:34.638Z,-3.20
2019-02-21T05:14:34.626Z,-3.26
2019-02-21T05:15:34.615Z,-3.18
2019-02-21T05:16:34.735Z,-3.17
2019-02-21T05:17:34.600Z,-3.11
2019-02-21T05:18:34.590Z,-3.17
2019-02-21T05:19:34.577Z,-3.23
2019-02-21T05:20:34.571Z,-3.33
2019-02-21T05:21:34.591Z,-3.31
2019-02-21T05:22:34.550Z,-3.29
2019-02-21T05:23:36.701Z,-3.33
2019-02-21T05:24:34.526Z,-3.38
2019-02-21T05:25:34.524Z,-3.46
2019-02-21T05:26:35.044Z,-3.51
2019-02-21T05:27:34.496Z,-3.51
2019-02-21T05:28:34.484Z,-3.39
2019-02-21T05:29:34.479Z,-3.46
2019-02-21T05:30:36.352Z,-3.33
2019-02-21T05:31:34.458Z,-3.28
2019-02-21T05:32:41.036Z,-3.25
2019-02-21T05:33:35.432Z,-3.25
2019-02-21T05:34:34.435Z,-3.25
2019-02-21T05:35:34.422Z,-3.20
2019-02-21T05:36:34.406Z,-3.28
2019-02-21T05:37:34.424Z,-3.31
2019-02-21T05:38:34.385Z,-3.33
2019-02-21T05:39:34.377Z,-3.41
2019-02-21T05:40:34.365Z,-3.32
2019-02-21T05:41:34.362Z,-3.39
2019-02-21T05:42:34.379Z,-3.51
2019-02-21T05:43:37.112Z,-3.50
2019-02-21T05:44:34.332Z,-3.57
2019-02-21T05:45:34.326Z,-3.51
2019-02-21T05:46:34.312Z,-3.56
2019-02-21T05:47:34.335Z,-3.50
2019-02-21T05:48:34.294Z,-3.50
2019-02-21T05:49:34.277Z,-3.43
2019-02-21T05:50:34.271Z,-3.51
2019-02-21T05:51:34.262Z,-3.53
2019-02-21T05:52:34.286Z,-3.70
2019-02-21T05:53:34.239Z,-3.70
2019-02-21T05:54:34.229Z,-3.80
2019-02-21T05:55:34.258Z,-3.93
2019-02-21T05:56:34.208Z,-3.96
2019-02-21T05:57:34.230Z,-4.02
2019-02-21T05:58:34.247Z,-4.05
2019-02-21T05:59:34.175Z,-4.02
2019-02-21T06:00:36.741Z,-4.09
2019-02-21T06:01:34.164Z,-3.94
2019-02-21T06:02:34.181Z,-3.98
2019-02-21T06:03:35.978Z,-3.87
2019-02-21T06:04:34.124Z,-3.96
2019-02-21T06:05:34.130Z,-3.91
2019-02-21T06:06:34.110Z,-3.98
2019-02-21T06:07:34.131Z,-3.86
2019-02-21T06:08:34.088Z,-3.84
2019-02-21T06:09:34.083Z,-3.78
2019-02-21T06:10:34.065Z,-3.78
2019-02-21T06:11:35.129Z,-3.71
2019-02-21T06:12:34.182Z,-3.65
2019-02-21T06:13:34.046Z,-3.71
2019-02-21T06:14:34.034Z,-3.65
2019-02-21T06:15:34.021Z,-3.68
2019-02-21T06:16:34.006Z,-3.70
2019-02-21T06:17:34.333Z,-3.72
2019-02-21T06:18:33.982Z,-3.67
2019-02-21T06:19:33.978Z,-3.75
2019-02-21T06:20:33.997Z,-3.78
2019-02-21T06:21:33.957Z,-3.84
2019-02-21T06:22:33.983Z,-3.90
2019-02-21T06:23:33.946Z,-4.04
2019-02-21T06:24:33.929Z,-4.04
2019-02-21T06:25:33.923Z,-4.02
2019-02-21T06:26:33.912Z,-4.18
2019-02-21T06:27:34.645Z,-4.18
2019-02-21T06:28:33.886Z,-4.05
2019-02-21T06:29:34.239Z,-4.01
2019-02-21T06:30:33.892Z,-3.96
2019-02-21T06:31:33.863Z,-3.96
2019-02-21T06:32:33.896Z,-3.84
2019-02-21T06:33:33.843Z,-3.71
2019-02-21T06:34:33.863Z,-3.71
2019-02-21T06:35:33.826Z,-3.87
2019-02-21T06:36:33.817Z,-3.86
2019-02-21T06:37:33.836Z,-3.86
2019-02-21T06:38:33.940Z,-3.81
2019-02-21T06:39:33.782Z,-3.81
2019-02-21T06:40:36.376Z,-3.80
2019-02-21T06:41:33.760Z,-3.78
2019-02-21T06:42:33.846Z,-3.62
2019-02-21T06:43:33.735Z,-3.67
2019-02-21T06:44:33.724Z,-3.51
2019-02-21T06:45:33.718Z,-3.51
2019-02-21T06:46:33.713Z,-3.51
2019-02-21T06:47:33.731Z,-3.53
2019-02-21T06:48:34.908Z,-3.64
2019-02-21T06:49:33.683Z,-3.57
2019-02-21T06:50:33.666Z,-3.68
2019-02-21T06:51:33.658Z,-3.51
2019-02-21T06:52:33.678Z,-3.56
2019-02-21T06:53:33.645Z,-3.50
2019-02-21T06:54:33.624Z,-3.47
2019-02-21T06:55:33.623Z,-3.43
2019-02-21T06:56:33.609Z,-3.32
2019-02-21T06:57:33.651Z,-3.29
2019-02-21T06:58:33.591Z,-3.05
2019-02-21T06:59:41.890Z,-2.89
2019-02-21T07:00:34.597Z,-2.76
2019-02-21T07:01:33.562Z,-2.66
2019-02-21T07:02:33.562Z,-2.39
2019-02-21T07:03:33.567Z,-2.33
2019-02-21T07:04:33.568Z,-2.16
2019-02-21T07:05:33.521Z,-1.92
2019-02-21T07:06:33.510Z,-1.85
2019-02-21T07:07:33.510Z,-1.66
2019-02-21T07:08:33.522Z,-1.56
2019-02-21T07:09:33.482Z,-1.46
2019-02-21T07:10:33.474Z,-1.35
2019-02-21T07:11:33.480Z,-1.39
2019-02-21T07:12:33.453Z,-1.30
2019-02-21T07:13:33.468Z,-1.06
2019-02-21T07:14:34.518Z,-1.06
2019-02-21T07:15:33.445Z,-0.99
2019-02-21T07:16:33.413Z,-0.81
2019-02-21T07:17:33.394Z,-0.78
2019-02-21T07:18:33.410Z,-0.69
2019-02-21T07:19:33.457Z,-0.54
2019-02-21T07:20:33.375Z,-0.42
2019-02-21T07:21:33.360Z,-0.19
2019-02-21T07:22:33.350Z,-0.23
2019-02-21T07:23:43.153Z,-0.08
2019-02-21T07:24:34.324Z,0.00
2019-02-21T07:25:33.317Z,0.06
2019-02-21T07:26:33.309Z,0.27
2019-02-21T07:27:33.297Z,0.25
2019-02-21T07:28:33.319Z,0.43
2019-02-21T07:29:33.275Z,0.53
2019-02-21T07:30:33.272Z,0.67
2019-02-21T07:31:33.262Z,0.83
2019-02-21T07:32:33.249Z,0.92
2019-02-21T07:33:33.268Z,1.16
2019-02-21T07:34:33.238Z,1.24
2019-02-21T07:35:33.217Z,1.43
2019-02-21T07:36:33.201Z,1.64
2019-02-21T07:37:33.203Z,1.82
2019-02-21T07:38:33.965Z,1.82
2019-02-21T07:39:36.003Z,1.82
2019-02-21T07:40:33.162Z,1.94
2019-02-21T07:41:33.151Z,2.08
2019-02-21T07:42:33.183Z,2.13
2019-02-21T07:43:33.178Z,2.22
2019-02-21T07:44:33.121Z,2.41
2019-02-21T07:45:33.510Z,2.53
2019-02-21T07:46:33.110Z,2.64
2019-02-21T07:47:33.089Z,2.79
2019-02-21T07:48:33.113Z,2.82
2019-02-21T07:49:33.076Z,2.91
2019-02-21T07:50:33.060Z,2.95
2019-02-21T07:51:33.051Z,3.13
2019-02-21T07:52:33.039Z,3.31
2019-02-21T07:53:33.064Z,3.34
2019-02-21T07:54:33.028Z,3.36
2019-02-21T07:55:33.007Z,3.39
2019-02-21T07:56:41.574Z,3.36
2019-02-21T07:57:33.992Z,3.39
2019-02-21T07:58:32.979Z,3.46
2019-02-21T07:59:32.999Z,3.65
2019-02-21T08:00:32.976Z,3.90
2019-02-21T08:01:32.964Z,3.98
2019-02-21T08:02:32.939Z,4.12
2019-02-21T08:03:43.774Z,4.25
2019-02-21T08:04:33.938Z,4.28
2019-02-21T08:05:32.916Z,4.44
2019-02-21T08:06:32.914Z,4.51
2019-02-21T08:07:32.891Z,4.57
2019-02-21T08:08:32.907Z,4.55
2019-02-21T08:09:32.874Z,4.79
2019-02-21T08:10:34.029Z,4.80
2019-02-21T08:11:32.845Z,4.88
2019-02-21T08:12:32.838Z,4.99
2019-02-21T08:13:32.850Z,5.05
2019-02-21T08:14:32.813Z,5.16
2019-02-21T08:15:32.805Z,5.19
2019-02-21T08:16:32.796Z,5.17
2019-02-21T08:17:32.783Z,5.32
2019-02-21T08:18:32.798Z,5.32
2019-02-21T08:19:32.777Z,5.43
2019-02-21T08:20:34.676Z,5.53
2019-02-21T08:21:33.863Z,5.77
2019-02-21T08:22:32.730Z,5.78
2019-02-21T08:23:32.746Z,5.81
2019-02-21T08:24:32.710Z,5.85
2019-02-21T08:25:32.705Z,6.03
2019-02-21T08:26:32.694Z,6.14
2019-02-21T08:27:35.209Z,6.33
2019-02-21T08:28:32.678Z,6.44
2019-02-21T08:29:32.688Z,6.46
2019-02-21T08:30:33.104Z,6.65
2019-02-21T08:31:32.640Z,6.81
2019-02-21T08:32:32.635Z,6.89
2019-02-21T08:33:32.615Z,7.13
2019-02-21T08:34:32.635Z,7.22
2019-02-21T08:35:32.618Z,7.24
2019-02-21T08:36:32.582Z,7.32
2019-02-21T08:37:32.571Z,7.38
2019-02-21T08:38:32.565Z,7.53
2019-02-21T08:39:32.594Z,7.59
2019-02-21T08:40:32.577Z,7.77
2019-02-21T08:41:32.538Z,8.07
2019-02-21T08:42:32.519Z,8.33
2019-02-21T08:43:32.510Z,8.53
2019-02-21T08:44:32.533Z,8.62
2019-02-21T08:45:32.488Z,8.75
2019-02-21T08:46:32.482Z,8.83
2019-02-21T08:47:32.476Z,9.02
2019-02-21T08:48:32.463Z,8.99
2019-02-21T08:49:32.535Z,9.24
2019-02-21T08:50:32.445Z,9.38
2019-02-21T08:51:32.453Z,9.39
2019-02-21T08:52:32.468Z,9.48
2019-02-21T08:53:32.462Z,9.66
2019-02-21T08:54:32.394Z,9.75
2019-02-21T08:55:32.429Z,9.73
2019-02-21T08:56:32.379Z,9.71
2019-02-21T08:57:32.375Z,9.85
2019-02-21T08:58:32.382Z,9.96
2019-02-21T08:59:32.385Z,10.06
2019-02-21T09:00:32.329Z,10.06
2019-02-21T09:01:32.331Z,10.25
2019-02-21T09:02:32.316Z,10.34
2019-02-21T09:03:32.299Z,10.24
2019-02-21T09:04:32.320Z,10.18
2019-02-21T09:05:32.293Z,10.14
2019-02-21T09:06:32.274Z,10.22
2019-02-21T09:07:32.262Z,10.43
2019-02-21T09:08:35.073Z,10.63
2019-02-21T09:09:33.480Z,10.89
2019-02-21T09:10:32.234Z,11.16
2019-02-21T09:11:32.221Z,11.27
2019-02-21T09:12:32.212Z,11.46
2019-02-21T09:13:32.195Z,11.78
2019-02-21T09:14:32.210Z,12.01
2019-02-21T09:15:32.185Z,12.30
2019-02-21T09:16:32.173Z,12.30
2019-02-21T09:17:32.283Z,12.38
2019-02-21T09:18:32.170Z,12.51
2019-02-21T09:19:32.137Z,12.29
2019-02-21T09:20:32.117Z,12.48
2019-02-21T09:21:32.105Z,12.37
2019-02-21T09:22:32.176Z,12.54
2019-02-21T09:23:32.089Z,12.63
2019-02-21T09:24:39.146Z,12.71
2019-02-21T09:25:33.071Z,12.77
2019-02-21T09:26:34.609Z,13.00
2019-02-21T09:27:32.046Z,13.12
2019-02-21T09:28:32.038Z,13.33
2019-02-21T09:29:32.231Z,13.58
2019-02-21T09:30:32.015Z,13.70
2019-02-21T09:31:32.003Z,13.84
2019-02-21T09:32:31.998Z,13.89
2019-02-21T09:33:31.992Z,14.14
2019-02-21T09:34:31.970Z,14.24
2019-02-21T09:35:31.992Z,14.28
2019-02-21T09:36:31.946Z,14.34
2019-02-21T09:37:31.936Z,14.56
2019-02-21T09:38:34.577Z,14.49
2019-02-21T09:39:31.915Z,14.80
2019-02-21T09:40:31.955Z,14.90
2019-02-21T09:41:31.902Z,15.09
2019-02-21T09:42:31.891Z,15.23
2019-02-21T09:43:31.906Z,15.01
2019-02-21T09:44:31.869Z,15.06
2019-02-21T09:45:32.880Z,15.24
2019-02-21T09:46:31.852Z,15.28
2019-02-21T09:47:31.832Z,15.51
2019-02-21T09:48:31.823Z,15.54
2019-02-21T09:49:31.848Z,15.54
2019-02-21T09:50:31.834Z,15.66
2019-02-21T09:51:31.798Z,15.86
2019-02-21T09:52:31.775Z,16.03
2019-02-21T09:53:31.779Z,16.14
2019-02-21T09:54:31.759Z,16.09
2019-02-21T09:55:31.795Z,16.53
2019-02-21T09:56:31.751Z,16.56
2019-02-21T09:57:31.724Z,16.74
2019-02-21T09:58:31.717Z,16.63
2019-02-21T09:59:31.717Z,16.60
2019-02-21T10:00:31.724Z,16.80
2019-02-21T10:01:31.693Z,17.07
2019-02-21T10:02:31.680Z,17.38
2019-02-21T10:03:31.661Z,17.53
2019-02-21T10:04:32.552Z,17.70
2019-02-21T10:05:31.674Z,17.66
2019-02-21T10:06:31.625Z,17.50
2019-02-21T10:07:31.622Z,17.30
2019-02-21T10:08:31.604Z,17.43
2019-02-21T10:09:31.623Z,17.66
2019-02-21T10:10:31.623Z,17.95
2019-02-21T10:11:31.574Z,17.95
2019-02-21T10:12:31.591Z,17.99
2019-02-21T10:13:31.557Z,18.03
2019-02-21T10:14:31.546Z,18.09
2019-02-21T10:15:31.645Z,18.10
2019-02-21T10:16:31.526Z,17.91
2019-02-21T10:17:31.739Z,17.69
2019-02-21T10:18:31.541Z,17.88
2019-02-21T10:19:31.491Z,18.21
2019-02-21T10:20:31.511Z,18.42
2019-02-21T10:21:31.477Z,18.62
2019-02-21T10:22:31.466Z,18.86
2019-02-21T10:23:31.450Z,18.87
2019-02-21T10:24:31.438Z,19.15
2019-02-21T10:25:31.462Z,19.48
2019-02-21T10:26:31.417Z,19.63
2019-02-21T10:27:31.412Z,19.87
2019-02-21T10:28:32.520Z,20.00
2019-02-21T10:29:31.387Z,19.87
2019-02-21T10:30:31.403Z,19.90
2019-02-21T10:31:31.360Z,20.16
2019-02-21T10:32:31.349Z,20.06
2019-02-21T10:33:31.335Z,20.02
2019-02-21T10:34:31.329Z,20.06
2019-02-21T10:35:31.347Z,20.39
2019-02-21T10:36:31.307Z,20.65
2019-02-21T10:37:31.293Z,20.91
2019-02-21T10:38:31.293Z,20.99
2019-02-21T10:39:31.288Z,21.14
2019-02-21T10:40:33.365Z,21.14
2019-02-21T10:41:31.254Z,20.39
2019-02-21T10:42:31.339Z,20.20
2019-02-21T10:43:31.230Z,20.51
2019-02-21T10:44:31.223Z,20.80
2019-02-21T10:45:31.217Z,20.87
2019-02-21T10:46:31.199Z,21.06
2019-02-21T10:47:31.202Z,20.79
2019-02-21T10:48:31.214Z,20.84
2019-02-21T10:49:31.178Z,20.87
2019-02-21T10:50:31.160Z,21.09
2019-02-21T10:51:31.196Z,21.09
2019-02-21T10:52:31.143Z,21.27
2019-02-21T10:53:31.131Z,21.64
2019-02-21T10:54:31.125Z,21.98
2019-02-21T10:55:31.109Z,22.20
2019-02-21T10:56:31.520Z,22.41
2019-02-21T10:57:31.142Z,22.57
2019-02-21T10:58:31.099Z,22.71
2019-02-21T10:59:31.066Z,22.44
2019-02-21T11:00:31.049Z,22.27
2019-02-21T11:01:31.060Z,22.27
2019-02-21T11:02:31.039Z,22.09
2019-02-21T11:03:31.022Z,22.17
2019-02-21T11:04:31.007Z,22.31
2019-02-21T11:05:31.007Z,21.59
2019-02-21T11:06:31.012Z,21.66
2019-02-21T11:07:30.974Z,21.26
2019-02-21T11:08:30.965Z,21.06
2019-02-21T11:09:30.992Z,20.86
2019-02-21T11:10:30.966Z,20.71
2019-02-21T11:11:30.934Z,20.79
2019-02-21T11:12:30.932Z,21.17
2019-02-21T11:13:30.948Z,21.71
2019-02-21T11:14:30.904Z,22.16
2019-02-21T11:15:30.895Z,22.59
2019-02-21T11:16:30.911Z,22.74
2019-02-21T11:17:30.874Z,22.59
2019-02-21T11:18:30.862Z,22.65
2019-02-21T11:19:30.853Z,22.84
2019-02-21T11:20:30.839Z,22.06
2019-02-21T11:21:30.849Z,21.46
2019-02-21T11:22:30.844Z,21.56
2019-02-21T11:23:30.804Z,21.59
2019-02-21T11:24:30.808Z,21.60
2019-02-21T11:25:30.781Z,22.09
2019-02-21T11:26:30.810Z,22.62
2019-02-21T11:27:30.761Z,22.67
2019-02-21T11:28:30.776Z,22.54
2019-02-21T11:29:30.744Z,22.69
2019-02-21T11:30:30.734Z,22.90
2019-02-21T11:31:30.758Z,23.17
2019-02-21T11:32:30.712Z,23.40
2019-02-21T11:33:30.706Z,23.53
2019-02-21T11:34:30.684Z,23.11
2019-02-21T11:35:30.684Z,23.09
2019-02-21T11:36:30.703Z,23.29
2019-02-21T11:37:30.657Z,22.82
2019-02-21T11:38:30.649Z,21.88
2019-02-21T11:39:30.637Z,21.32
2019-02-21T11:40:30.625Z,21.13
2019-02-21T11:41:30.644Z,20.89
2019-02-21T11:42:30.602Z,20.56
2019-02-21T11:43:30.600Z,20.59
2019-02-21T11:44:30.594Z,20.86
2019-02-21T11:45:30.569Z,21.42
2019-02-21T11:46:30.592Z,22.31
2019-02-21T11:47:30.559Z,22.39
2019-02-21T11:48:30.542Z,22.04
2019-02-21T11:49:30.530Z,21.74
2019-02-21T11:50:30.540Z,21.27
2019-02-21T11:51:30.534Z,21.27
2019-02-21T11:52:30.498Z,21.23
2019-02-21T11:53:30.486Z,21.30
2019-02-21T11:54:30.475Z,20.91
2019-02-21T11:55:30.480Z,20.83
2019-02-21T11:56:30.484Z,20.74
2019-02-21T11:57:30.442Z,20.30
2019-02-21T11:58:30.438Z,20.65
2019-02-21T11:59:30.415Z,21.14
2019-02-21T12:00:30.504Z,21.08
2019-02-21T12:01:30.424Z,21.06
2019-02-21T12:02:38.598Z,20.76
2019-02-21T12:03:31.380Z,19.97
2019-02-21T12:04:30.396Z,20.03
2019-02-21T12:05:31.791Z,19.70
2019-02-21T12:06:30.389Z,19.33
2019-02-21T12:07:30.346Z,19.33
2019-02-21T12:08:30.330Z,19.60
2019-02-21T12:09:30.316Z,20.15
2019-02-21T12:10:30.310Z,19.91
2019-02-21T12:11:30.304Z,20.00
2019-02-21T12:12:30.312Z,20.76
2019-02-21T12:13:30.276Z,21.50
2019-02-21T12:14:30.269Z,22.43
2019-02-21T12:15:30.263Z,22.06
2019-02-21T12:16:30.281Z,21.56
2019-02-21T12:17:30.238Z,21.98
2019-02-21T12:18:30.222Z,22.35
2019-02-21T12:19:30.214Z,22.84
2019-02-21T12:20:30.204Z,23.08
2019-02-21T12:21:30.190Z,22.89
2019-02-21T12:22:30.215Z,23.14
2019-02-21T12:23:30.170Z,23.55
2019-02-21T12:24:30.153Z,23.76
2019-02-21T12:25:30.143Z,23.92
2019-02-21T12:26:30.153Z,23.97
2019-02-21T12:27:30.151Z,24.23
2019-02-21T12:28:30.114Z,24.53
2019-02-21T12:29:30.102Z,24.20
2019-02-21T12:30:30.093Z,24.00
2019-02-21T12:31:30.078Z,24.00
2019-02-21T12:32:30.099Z,24.14
2019-02-21T12:33:30.059Z,24.23
2019-02-21T12:34:30.054Z,24.08
2019-02-21T12:35:30.470Z,24.47
2019-02-21T12:36:30.025Z,24.29
2019-02-21T12:37:30.038Z,24.54
2019-02-21T12:38:30.011Z,24.68
2019-02-21T12:39:29.996Z,24.94
2019-02-21T12:40:29.982Z,25.27
2019-02-21T12:41:29.980Z,25.52
2019-02-21T12:42:29.991Z,25.43
2019-02-21T12:43:29.959Z,24.19
2019-02-21T12:44:29.951Z,23.22
2019-02-21T12:45:30.205Z,22.92
2019-02-21T12:46:29.924Z,22.84
2019-02-21T12:47:29.939Z,22.37
2019-02-21T12:48:29.907Z,22.20
2019-02-21T12:49:29.906Z,22.64
2019-02-21T12:50:29.883Z,22.69
2019-02-21T12:51:29.869Z,22.90
2019-02-21T12:52:29.886Z,23.42
2019-02-21T12:53:29.861Z,23.70
2019-02-21T12:54:29.847Z,22.69
2019-02-21T12:55:31.720Z,22.54